Time;durP1;ratioP1;P1;durP2;ratioP2;P2;SDS_P1;SDS_P2;PMS_P1;PMS_P2;Temp;Humidity;BMP_temperature;BMP_pressure;BME280_temperature;BME280_humidity;BME280_pressure;Samples;Min_cycle;Max_cycle;Signal;HPM_P1;HPM_P2
2021/05/20 00:00:00;;;;;;;7.47;6.35;;;7.30;93.00;;;;;;5083416;28;20135;-56
2021/05/20 00:02:26;;;;;;;7.05;6.22;;;7.30;93.10;;;;;;5078973;28;20051;-56
2021/05/20 00:04:52;;;;;;;5.65;4.95;;;7.30;93.10;;;;;;5070832;28;20064;-56
2021/05/20 00:07:18;;;;;;;4.70;4.20;;;7.30;93.20;;;;;;5075184;28;20485;-56
2021/05/20 00:09:44;;;;;;;5.28;3.40;;;7.30;93.10;;;;;;5073034;28;20164;-56
2021/05/20 00:12:12;;;;;;;4.20;3.80;;;7.30;93.10;;;;;;5081511;28;20450;-56
2021/05/20 00:14:38;;;;;;;4.07;3.30;;;7.30;93.10;;;;;;5051174;28;20068;-55
2021/05/20 00:17:04;;;;;;;4.18;3.63;;;7.20;93.00;;;;;;5079917;28;20055;-56
2021/05/20 00:19:30;;;;;;;5.93;4.82;;;7.20;93.00;;;;;;5072298;28;20040;-56
2021/05/20 00:21:57;;;;;;;8.65;7.05;;;7.20;93.00;;;;;;5042239;28;20460;-56
2021/05/20 00:24:22;;;;;;;10.15;8.10;;;7.20;93.10;;;;;;5064738;28;20045;-56
2021/05/20 00:26:50;;;;;;;9.98;8.43;;;7.20;93.10;;;;;;5064585;28;20429;-55
2021/05/20 00:29:16;;;;;;;14.10;10.88;;;7.30;93.30;;;;;;5051350;28;20040;-56
2021/05/20 00:31:43;;;;;;;13.38;10.95;;;7.30;93.30;;;;;;5071655;28;20386;-55
2021/05/20 00:34:09;;;;;;;10.68;9.32;;;7.40;93.30;;;;;;5071972;28;20070;-56
2021/05/20 00:36:34;;;;;;;6.32;5.10;;;7.40;93.20;;;;;;5070751;28;20035;-56
2021/05/20 00:39:02;;;;;;;5.03;3.90;;;7.40;93.10;;;;;;5075297;28;20047;-56
2021/05/20 00:41:28;;;;;;;3.33;3.03;;;7.40;92.80;;;;;;5072330;28;20066;-56
2021/05/20 00:43:54;;;;;;;3.90;3.50;;;7.30;92.70;;;;;;5075780;28;20390;-56
2021/05/20 00:46:19;;;;;;;4.65;3.50;;;7.20;92.60;;;;;;5051282;28;20079;-56
2021/05/20 00:48:45;;;;;;;9.57;4.15;;;7.10;92.50;;;;;;5079269;28;20510;-56
2021/05/20 00:51:11;;;;;;;7.22;4.60;;;7.00;92.60;;;;;;5073874;28;20052;-56
2021/05/20 00:53:36;;;;;;;5.43;4.55;;;7.00;92.70;;;;;;5063394;28;20084;-56
2021/05/20 00:56:03;;;;;;;5.10;4.60;;;6.90;92.60;;;;;;5069929;28;20464;-56
2021/05/20 00:58:29;;;;;;;4.68;4.18;;;6.80;92.70;;;;;;5076399;28;20053;-55
2021/05/20 01:00:55;;;;;;;6.03;5.43;;;6.80;92.70;;;;;;5066847;28;20053;-54
2021/05/20 01:03:22;;;;;;;6.47;5.10;;;6.70;92.80;;;;;;5054215;28;20345;-55
2021/05/20 01:05:49;;;;;;;4.50;4.10;;;6.70;92.90;;;;;;5064983;28;20036;-55
2021/05/20 01:08:15;;;;;;;4.53;4.13;;;6.70;92.90;;;;;;5070918;28;20041;-52
2021/05/20 01:10:41;;;;;;;6.10;5.50;;;6.60;92.80;;;;;;5065911;28;20045;-55
2021/05/20 01:13:07;;;;;;;11.75;9.00;;;6.60;92.80;;;;;;5066786;28;20091;-54
2021/05/20 01:15:33;;;;;;;13.88;10.13;;;6.60;92.90;;;;;;5050767;28;20044;-54
2021/05/20 01:18:00;;;;;;;16.10;10.80;;;6.70;93.10;;;;;;5071796;28;20098;-55
2021/05/20 01:20:29;;;;;;;15.07;12.43;;;6.70;93.20;;;;;;5067645;28;20658;-55
2021/05/20 01:23:05;;;;;;;13.93;10.40;;;6.70;93.30;;;;;;5032842;28;20412;-55
2021/05/20 01:25:31;;;;;;;9.80;7.68;;;6.70;93.50;;;;;;5073776;28;20086;-56
2021/05/20 01:28:03;;;;;;;5.80;4.10;;;6.70;93.30;;;;;;5072363;28;20048;-56
2021/05/20 01:30:33;;;;;;;6.65;4.40;;;6.70;93.10;;;;;;5059729;28;20579;-56
2021/05/20 01:32:59;;;;;;;9.27;6.18;;;6.70;93.00;;;;;;5071983;28;20052;-56
2021/05/20 01:35:25;;;;;;;57.60;8.60;;;6.70;92.80;;;;;;5069304;28;20161;-56
2021/05/20 01:38:02;;;;;;;93.22;8.82;;;6.60;93.00;;;;;;5076340;28;20123;-56
2021/05/20 01:40:28;;;;;;;25.17;7.20;;;6.50;92.70;;;;;;5069040;28;20137;-57
2021/05/20 01:42:53;;;;;;;9.68;7.07;;;6.50;92.70;;;;;;5052981;28;20094;-56
2021/05/20 01:45:19;;;;;;;8.32;7.47;;;6.30;92.70;;;;;;5072010;28;20049;-57
2021/05/20 01:47:44;;;;;;;55.00;8.38;;;6.30;92.90;;;;;;5052600;28;20447;-56
2021/05/20 01:50:11;;;;;;;70.25;9.02;;;6.20;92.90;;;;;;5067355;28;20043;-57
2021/05/20 01:52:37;;;;;;;111.32;12.13;;;6.20;93.00;;;;;;5053163;28;20036;-54
2021/05/20 01:55:03;;;;;;;34.65;7.38;;;6.20;93.00;;;;;;5023997;28;20060;-55
2021/05/20 01:57:29;;;;;;;14.23;7.47;;;6.10;93.00;;;;;;5052815;28;20132;-55
2021/05/20 01:59:55;;;;;;;7.07;6.38;;;6.10;93.10;;;;;;5074329;28;20111;-54
2021/05/20 02:02:20;;;;;;;19.02;8.90;;;6.10;93.10;;;;;;5070609;28;20501;-56
2021/05/20 02:04:46;;;;;;;11.75;9.70;;;6.20;93.30;;;;;;5064509;28;20068;-56
2021/05/20 02:07:12;;;;;;;40.67;13.52;;;6.30;93.40;;;;;;5070560;28;20549;-57
2021/05/20 02:09:38;;;;;;;60.38;14.73;;;6.30;93.50;;;;;;5077789;28;20703;-56
2021/05/20 02:12:04;;;;;;;57.40;14.30;;;6.40;93.50;;;;;;5073217;28;20048;-56
2021/05/20 02:14:30;;;;;;;65.60;15.73;;;6.40;93.50;;;;;;5073501;28;20040;-56
2021/05/20 02:16:56;;;;;;;37.15;12.60;;;6.40;93.50;;;;;;5073428;28;20036;-56
2021/05/20 02:19:21;;;;;;;35.05;9.27;;;6.30;93.50;;;;;;5079685;28;20072;-55
2021/05/20 02:21:47;;;;;;;62.38;10.23;;;6.40;93.50;;;;;;5074122;28;20041;-57
2021/05/20 02:24:12;;;;;;;74.05;10.63;;;6.30;93.30;;;;;;5071745;28;20048;-56
2021/05/20 02:26:38;;;;;;;40.67;9.18;;;6.30;93.40;;;;;;5070980;28;20441;-56
2021/05/20 02:29:04;;;;;;;25.73;8.73;;;6.20;93.30;;;;;;5079481;28;20124;-57
2021/05/20 02:31:30;;;;;;;87.80;11.45;;;6.20;93.30;;;;;;5055840;28;20048;-56
2021/05/20 02:33:58;;;;;;;32.15;8.60;;;6.20;93.40;;;;;;5078645;28;20036;-56
2021/05/20 02:36:23;;;;;;;73.78;10.93;;;6.10;93.40;;;;;;5074058;28;20036;-56
2021/05/20 02:38:49;;;;;;;47.42;11.43;;;6.10;93.40;;;;;;5079479;28;20048;-56
2021/05/20 02:41:15;;;;;;;97.38;13.13;;;6.10;93.60;;;;;;5055377;28;20044;-56
2021/05/20 02:43:40;;;;;;;57.03;13.20;;;6.10;93.50;;;;;;5079294;28;20127;-56
2021/05/20 02:46:06;;;;;;;109.82;15.70;;;6.20;93.70;;;;;;5053846;28;20060;-56
2021/05/20 02:48:32;;;;;;;365.38;22.63;;;6.30;93.90;;;;;;5073330;28;20048;-56
2021/05/20 02:50:57;;;;;;;257.50;21.35;;;6.30;93.90;;;;;;5072163;28;20524;-56
2021/05/20 02:53:24;;;;;;;30.05;13.52;;;6.40;94.00;;;;;;5037752;28;20051;-56
2021/05/20 02:55:50;;;;;;;39.90;13.60;;;6.40;94.00;;;;;;5059708;28;20095;-54
2021/05/20 02:58:18;;;;;;;288.10;22.27;;;6.50;94.00;;;;;;5078358;28;20036;-56
2021/05/20 03:00:46;;;;;;;334.85;22.80;;;6.50;94.00;;;;;;5085345;28;20052;-56
2021/05/20 03:03:13;;;;;;;382.40;25.98;;;6.50;94.00;;;;;;5076021;28;20032;-57
2021/05/20 03:05:39;;;;;;;379.50;25.10;;;6.50;94.00;;;;;;5061443;28;20049;-56
2021/05/20 03:08:05;;;;;;;160.20;18.55;;;6.50;94.00;;;;;;5075951;28;20040;-56
2021/05/20 03:10:31;;;;;;;125.35;18.02;;;6.50;94.10;;;;;;5078802;28;20055;-56
2021/05/20 03:12:57;;;;;;;81.22;15.88;;;6.50;94.10;;;;;;5070935;28;20044;-56
2021/05/20 03:15:23;;;;;;;82.80;15.75;;;6.50;94.10;;;;;;5068036;28;20054;-56
2021/05/20 03:17:50;;;;;;;207.82;18.55;;;6.50;94.10;;;;;;5021391;28;20083;-55
2021/05/20 03:20:16;;;;;;;106.20;16.60;;;6.50;94.10;;;;;;5062905;28;20059;-55
2021/05/20 03:22:42;;;;;;;80.95;16.75;;;6.50;94.10;;;;;;5030740;28;20499;-56
2021/05/20 03:25:08;;;;;;;39.92;15.90;;;6.50;94.20;;;;;;5070855;28;20059;-57
2021/05/20 03:27:34;;;;;;;79.22;16.80;;;6.50;94.10;;;;;;5071283;28;20074;-56
2021/05/20 03:29:59;;;;;;;38.85;15.77;;;6.50;94.20;;;;;;5063892;28;20554;-56
2021/05/20 03:32:26;;;;;;;56.13;17.02;;;6.50;94.20;;;;;;5077972;28;20039;-56
2021/05/20 03:34:53;;;;;;;57.78;16.65;;;6.50;94.20;;;;;;5072015;28;20397;-56
2021/05/20 03:37:18;;;;;;;45.42;15.30;;;6.50;94.20;;;;;;5053922;28;20044;-56
2021/05/20 03:39:44;;;;;;;76.15;18.00;;;6.50;94.20;;;;;;5039043;28;20044;-56
2021/05/20 03:42:10;;;;;;;78.38;16.85;;;6.50;94.30;;;;;;5065596;28;20037;-56
2021/05/20 03:44:36;;;;;;;133.65;18.20;;;6.60;94.20;;;;;;5069408;28;20400;-57
2021/05/20 03:47:01;;;;;;;64.85;15.82;;;6.50;94.10;;;;;;5066686;28;20028;-56
2021/05/20 03:49:27;;;;;;;75.18;14.57;;;6.50;94.10;;;;;;5075141;28;20404;-56
2021/05/20 03:51:53;;;;;;;54.50;14.35;;;6.50;94.10;;;;;;5070498;28;20052;-56
2021/05/20 03:54:18;;;;;;;68.57;14.55;;;6.40;94.10;;;;;;5069855;28;20055;-56
2021/05/20 03:56:44;;;;;;;32.65;13.75;;;6.40;94.20;;;;;;5057300;28;20535;-56
2021/05/20 03:59:10;;;;;;;62.35;15.70;;;6.40;94.10;;;;;;5072652;28;20036;-56
2021/05/20 04:01:39;;;;;;;62.40;16.90;;;6.40;94.20;;;;;;5030448;28;20473;-56
2021/05/20 04:04:05;;;;;;;73.43;16.17;;;6.40;94.20;;;;;;5072990;28;20101;-56
2021/05/20 04:06:31;;;;;;;60.33;17.25;;;6.40;94.20;;;;;;5073260;28;20040;-55
2021/05/20 04:08:57;;;;;;;27.35;15.68;;;6.40;94.30;;;;;;5083612;28;20044;-56
2021/05/20 04:11:25;;;;;;;51.35;17.85;;;6.40;94.30;;;;;;5070894;28;20040;-55
2021/05/20 04:13:50;;;;;;;71.45;17.85;;;6.40;94.30;;;;;;5070214;28;20044;-56
2021/05/20 04:16:16;;;;;;;84.97;18.88;;;6.50;94.30;;;;;;5070781;28;20052;-56
2021/05/20 04:18:43;;;;;;;100.45;18.17;;;6.50;94.40;;;;;;5070765;28;20055;-56
2021/05/20 04:21:09;;;;;;;121.40;19.00;;;6.50;94.40;;;;;;5070417;28;20442;-56
2021/05/20 04:23:42;;;;;;;146.85;20.05;;;6.60;94.50;;;;;;5065753;28;20041;-56
2021/05/20 04:26:08;;;;;;;176.73;23.33;;;6.60;94.50;;;;;;5044494;28;20044;-56
2021/05/20 04:28:34;;;;;;;179.75;20.77;;;6.60;94.50;;;;;;5070569;28;20043;-56
2021/05/20 04:30:59;;;;;;;167.63;21.25;;;6.60;94.60;;;;;;5070119;28;20086;-56
2021/05/20 04:33:25;;;;;;;189.82;22.10;;;6.60;94.60;;;;;;5070485;28;20133;-56
2021/05/20 04:35:51;;;;;;;192.68;25.42;;;6.60;94.80;;;;;;5019920;28;20052;-56
2021/05/20 04:38:17;;;;;;;142.70;20.00;;;6.60;94.80;;;;;;5070172;28;20036;-56
2021/05/20 04:40:43;;;;;;;123.55;21.27;;;6.60;94.80;;;;;;5071087;28;20048;-56
2021/05/20 04:43:08;;;;;;;177.38;25.30;;;6.70;94.80;;;;;;5066189;28;20131;-53
2021/05/20 04:45:35;;;;;;;132.43;22.15;;;6.70;94.90;;;;;;5068069;28;20786;-51
2021/05/20 04:48:01;;;;;;;96.90;19.48;;;6.70;94.80;;;;;;5074793;28;20067;-53
2021/05/20 04:50:27;;;;;;;69.47;20.33;;;6.80;94.90;;;;;;5073169;28;20125;-53
2021/05/20 04:52:53;;;;;;;98.78;19.95;;;6.80;94.80;;;;;;5070891;28;20075;-51
2021/05/20 04:55:18;;;;;;;147.27;22.02;;;6.80;94.90;;;;;;5069308;28;20119;-53
2021/05/20 04:57:44;;;;;;;103.38;21.77;;;6.80;94.90;;;;;;5070521;28;20040;-53
2021/05/20 05:00:12;;;;;;;87.75;21.52;;;6.80;94.80;;;;;;5070095;28;20413;-53
2021/05/20 05:02:39;;;;;;;85.57;21.90;;;6.90;94.90;;;;;;5070955;28;20078;-53
2021/05/20 05:05:06;;;;;;;77.13;21.45;;;7.00;95.00;;;;;;5050172;28;20114;-50
2021/05/20 05:07:32;;;;;;;114.50;23.13;;;7.00;95.00;;;;;;5047018;28;20032;-53
2021/05/20 05:09:58;;;;;;;63.60;21.58;;;7.00;94.90;;;;;;5063192;28;20055;-55
2021/05/20 05:12:24;;;;;;;48.72;21.90;;;7.10;94.90;;;;;;5067565;28;20037;-53
2021/05/20 05:14:50;;;;;;;55.40;23.55;;;7.20;95.00;;;;;;5065284;28;20082;-57
2021/05/20 05:17:15;;;;;;;74.72;24.58;;;7.20;95.10;;;;;;5041804;28;20040;-54
2021/05/20 05:19:41;;;;;;;104.28;27.17;;;7.30;95.20;;;;;;5070752;28;20511;-51
2021/05/20 05:22:07;;;;;;;63.28;27.13;;;7.40;95.10;;;;;;5070228;28;20040;-54
2021/05/20 05:24:33;;;;;;;86.10;27.95;;;7.40;95.10;;;;;;5049492;28;20506;-55
2021/05/20 05:27:01;;;;;;;153.77;30.45;;;7.50;95.00;;;;;;5070004;28;20587;-53
2021/05/20 05:29:27;;;;;;;142.30;34.50;;;7.60;95.20;;;;;;5037063;28;20387;-55
2021/05/20 05:31:53;;;;;;;145.75;32.00;;;7.60;95.20;;;;;;5068074;28;20036;-55
2021/05/20 05:34:19;;;;;;;70.00;29.33;;;7.80;95.40;;;;;;5065083;28;20489;-55
2021/05/20 05:36:45;;;;;;;113.32;31.73;;;7.90;95.30;;;;;;5070744;28;20480;-53
2021/05/20 05:39:13;;;;;;;188.57;35.42;;;7.90;95.50;;;;;;5065820;28;20692;-52
2021/05/20 05:41:40;;;;;;;173.13;38.47;;;8.00;95.30;;;;;;5047965;28;20048;-53
2021/05/20 05:44:06;;;;;;;71.25;32.78;;;8.10;95.30;;;;;;5054492;28;20044;-53
2021/05/20 05:46:32;;;;;;;130.98;34.50;;;8.10;95.40;;;;;;5076253;28;20058;-52
2021/05/20 05:49:01;;;;;;;130.88;36.65;;;8.20;95.40;;;;;;5074705;28;20481;-51
2021/05/20 05:51:30;;;;;;;137.35;34.83;;;8.30;95.30;;;;;;5074059;28;20059;-53
2021/05/20 05:53:55;;;;;;;234.93;40.40;;;8.30;95.50;;;;;;5071103;28;20067;-53
2021/05/20 05:56:21;;;;;;;102.45;35.05;;;8.40;95.60;;;;;;5067874;28;20064;-53
2021/05/20 05:58:47;;;;;;;172.65;36.50;;;8.40;95.60;;;;;;5073646;28;20039;-53
2021/05/20 06:01:12;;;;;;;81.88;35.95;;;8.50;95.50;;;;;;5072185;28;20085;-55
2021/05/20 06:03:38;;;;;;;79.03;37.88;;;8.60;95.60;;;;;;5072068;28;20346;-52
2021/05/20 06:06:05;;;;;;;102.85;37.70;;;8.60;95.60;;;;;;5036038;28;20151;-53
2021/05/20 06:08:32;;;;;;;109.35;37.20;;;8.70;95.70;;;;;;5072410;28;20044;-54
2021/05/20 06:10:57;;;;;;;102.85;37.95;;;8.80;95.60;;;;;;5072731;28;20519;-53
2021/05/20 06:13:24;;;;;;;97.60;39.88;;;8.80;95.60;;;;;;5073273;28;20048;-52
2021/05/20 06:15:49;;;;;;;101.90;39.22;;;8.90;95.60;;;;;;5073100;28;20618;-53
2021/05/20 06:18:16;;;;;;;71.70;38.15;;;9.00;95.60;;;;;;5070601;28;20089;-53
2021/05/20 06:20:41;;;;;;;71.57;37.35;;;9.00;95.70;;;;;;5022316;28;20054;-55
2021/05/20 06:23:08;;;;;;;70.50;37.80;;;9.10;95.90;;;;;;5037493;28;20114;-55
2021/05/20 06:25:34;;;;;;;66.65;37.78;;;9.10;95.80;;;;;;5053369;28;20067;-55
2021/05/20 06:28:05;;;;;;;67.22;38.45;;;9.20;95.70;;;;;;5072650;28;20037;-54
2021/05/20 06:30:31;;;;;;;64.22;38.50;;;9.30;95.80;;;;;;5072957;28;20044;-55
2021/05/20 06:32:57;;;;;;;74.90;42.35;;;9.30;95.80;;;;;;5069025;28;20223;-54
2021/05/20 06:35:25;;;;;;;63.42;39.72;;;9.40;95.70;;;;;;5070595;28;20045;-54
2021/05/20 06:37:51;;;;;;;65.22;40.90;;;9.50;95.70;;;;;;5073568;28;20044;-53
2021/05/20 06:40:17;;;;;;;69.28;41.55;;;9.50;95.50;;;;;;5073288;28;20039;-53
2021/05/20 06:42:43;;;;;;;76.80;44.80;;;9.70;95.50;;;;;;5073214;28;20037;-53
2021/05/20 06:45:12;;;;;;;71.10;42.50;;;9.80;95.40;;;;;;5054604;28;20472;-53
2021/05/20 06:47:38;;;;;;;64.47;40.78;;;9.90;95.50;;;;;;5072384;28;20036;-56
2021/05/20 06:50:05;;;;;;;59.67;38.28;;;9.90;95.40;;;;;;5064743;28;20043;-53
2021/05/20 06:52:32;;;;;;;63.28;40.28;;;10.00;95.60;;;;;;5043321;28;20040;-56
2021/05/20 06:54:57;;;;;;;68.32;42.33;;;10.00;95.70;;;;;;5071617;28;20049;-53
2021/05/20 06:57:30;;;;;;;56.92;36.83;;;10.10;95.60;;;;;;5073075;28;20413;-53
2021/05/20 07:00:01;;;;;;;58.28;38.03;;;10.20;95.50;;;;;;5056131;28;20044;-54
2021/05/20 07:02:29;;;;;;;55.35;37.58;;;10.30;95.40;;;;;;5073077;28;20162;-54
2021/05/20 07:04:56;;;;;;;56.25;36.92;;;10.30;95.30;;;;;;5071780;28;20047;-53
2021/05/20 07:07:22;;;;;;;50.78;36.22;;;10.30;95.10;;;;;;5072504;28;20036;-53
2021/05/20 07:09:48;;;;;;;50.95;35.67;;;10.30;95.20;;;;;;5072039;28;20372;-50
2021/05/20 07:12:15;;;;;;;53.13;37.50;;;10.30;95.10;;;;;;5068847;28;20456;-54
2021/05/20 07:14:43;;;;;;;61.20;39.88;;;10.30;95.20;;;;;;5064466;28;20509;-53
2021/05/20 07:17:10;;;;;;;53.88;37.45;;;10.40;95.30;;;;;;5054002;28;20036;-52
2021/05/20 07:19:35;;;;;;;48.17;34.13;;;10.60;95.30;;;;;;5072132;28;20538;-53
2021/05/20 07:22:01;;;;;;;58.22;38.15;;;10.70;95.20;;;;;;5071902;28;20036;-53
2021/05/20 07:24:27;;;;;;;48.58;35.08;;;10.80;95.00;;;;;;5071539;28;20055;-52
2021/05/20 07:26:54;;;;;;;51.38;34.95;;;10.90;94.80;;;;;;5062374;28;20044;-54
2021/05/20 07:29:20;;;;;;;47.65;33.63;;;11.10;95.00;;;;;;5072204;28;20041;-53
2021/05/20 07:31:46;;;;;;;41.30;30.25;;;11.30;95.00;;;;;;5071671;28;20118;-53
2021/05/20 07:34:12;;;;;;;42.17;30.20;;;11.50;94.70;;;;;;5071196;28;20054;-52
2021/05/20 07:36:38;;;;;;;45.97;32.25;;;11.60;93.90;;;;;;5071265;28;20139;-53
2021/05/20 07:39:04;;;;;;;45.67;30.08;;;11.80;93.90;;;;;;5068199;28;20053;-54
2021/05/20 07:41:31;;;;;;;38.55;25.50;;;11.80;93.70;;;;;;5064183;28;20040;-54
2021/05/20 07:43:57;;;;;;;36.90;25.83;;;11.80;93.40;;;;;;5070409;28;20049;-53
2021/05/20 07:46:23;;;;;;;38.40;27.10;;;11.90;93.30;;;;;;5053640;28;20068;-53
2021/05/20 07:48:49;;;;;;;36.90;28.05;;;11.90;93.30;;;;;;5059809;28;20110;-52
2021/05/20 07:51:15;;;;;;;35.42;27.55;;;11.90;93.10;;;;;;5057738;28;20041;-55
2021/05/20 07:53:41;;;;;;;33.10;27.08;;;11.90;93.10;;;;;;5060726;28;20051;-54
2021/05/20 07:56:06;;;;;;;34.53;25.88;;;12.00;92.90;;;;;;5065244;28;20032;-52
2021/05/20 07:58:32;;;;;;;35.63;26.02;;;12.10;93.00;;;;;;5063672;28;20116;-55
2021/05/20 08:01:02;;;;;;;33.42;25.35;;;12.20;93.10;;;;;;5062598;28;20344;-53
2021/05/20 08:03:37;;;;;;;27.48;22.00;;;12.40;92.90;;;;;;5062914;28;20074;-55
2021/05/20 08:08:37;;;;;;;26.50;21.52;;;12.40;92.10;;;;;;5064181;28;20764;-53
2021/05/20 08:11:04;;;;;;;28.42;23.58;;;12.30;92.10;;;;;;5062636;28;20048;-56
2021/05/20 08:13:31;;;;;;;27.38;22.40;;;12.30;91.90;;;;;;5045845;28;20044;-53
2021/05/20 08:16:00;;;;;;;26.65;21.50;;;12.20;92.00;;;;;;5061826;28;21536;-53
2021/05/20 08:18:28;;;;;;;27.73;21.08;;;12.30;92.00;;;;;;5036159;28;20948;-54
2021/05/20 08:20:54;;;;;;;28.60;20.58;;;12.30;91.40;;;;;;5066296;28;20473;-50
2021/05/20 08:23:24;;;;;;;25.52;20.10;;;12.40;91.50;;;;;;5061200;28;20045;-53
2021/05/20 08:25:50;;;;;;;26.40;19.90;;;12.40;91.20;;;;;;5059320;28;20175;-53
2021/05/20 08:28:17;;;;;;;22.08;18.02;;;12.40;91.10;;;;;;5058471;28;20335;-53
2021/05/20 08:30:44;;;;;;;24.73;20.48;;;12.50;91.00;;;;;;5063841;28;20642;-53
2021/05/20 08:33:11;;;;;;;29.67;23.13;;;12.60;91.00;;;;;;5068160;28;20037;-54
2021/05/20 08:35:37;;;;;;;23.67;19.38;;;12.80;91.10;;;;;;5065218;28;20407;-50
2021/05/20 08:38:03;;;;;;;18.92;15.15;;;13.00;90.90;;;;;;5064689;28;20028;-51
2021/05/20 08:40:30;;;;;;;21.17;16.00;;;13.20;87.40;;;;;;5068857;28;20127;-50
2021/05/20 08:42:57;;;;;;;16.63;14.73;;;13.20;89.00;;;;;;5070182;28;20044;-52
2021/05/20 08:45:31;;;;;;;16.77;14.15;;;13.20;88.70;;;;;;5049437;28;20063;-56
2021/05/20 08:47:58;;;;;;;18.67;14.63;;;13.30;88.00;;;;;;5069219;28;20040;-55
2021/05/20 08:50:26;;;;;;;16.75;13.02;;;13.30;88.60;;;;;;5072306;28;20032;-56
2021/05/20 08:52:52;;;;;;;13.63;11.25;;;13.30;87.40;;;;;;5071672;28;20075;-55
2021/05/20 08:55:22;;;;;;;13.95;11.60;;;13.20;87.40;;;;;;5068974;28;20497;-55
2021/05/20 08:57:48;;;;;;;18.52;13.45;;;13.40;87.50;;;;;;5036613;28;20048;-56
2021/05/20 09:00:19;;;;;;;18.90;12.45;;;13.50;87.80;;;;;;5070672;28;20082;-53
2021/05/20 09:02:46;;;;;;;18.60;13.32;;;13.60;86.10;;;;;;5067070;28;20044;-56
2021/05/20 09:05:18;;;;;;;15.05;12.18;;;13.60;86.30;;;;;;5068791;28;20037;-55
2021/05/20 09:07:53;;;;;;;14.60;11.65;;;13.50;85.70;;;;;;5064896;28;20049;-55
2021/05/20 09:10:25;;;;;;;17.63;10.15;;;13.70;84.50;;;;;;5052499;28;20401;-54
2021/05/20 09:13:20;;;;;;;14.88;10.55;;;13.80;81.60;;;;;;5052424;28;20521;-55
2021/05/20 09:15:51;;;;;;;14.60;10.57;;;13.90;82.60;;;;;;5044813;28;20561;-55
2021/05/20 09:18:23;;;;;;;10.25;8.85;;;14.00;83.20;;;;;;5072920;28;20050;-54
2021/05/20 09:20:52;;;;;;;11.00;7.00;;;14.00;83.10;;;;;;5064964;28;20048;-54
2021/05/20 09:23:23;;;;;;;13.18;8.10;;;14.10;82.20;;;;;;5066199;28;20516;-53
2021/05/20 09:25:52;;;;;;;12.90;8.70;;;14.30;82.30;;;;;;5026840;28;20045;-56
2021/05/20 09:28:39;;;;;;;14.32;8.88;;;14.40;81.00;;;;;;5049641;28;20044;-54
2021/05/20 09:31:05;;;;;;;13.00;9.90;;;14.60;80.00;;;;;;5070441;28;20055;-55
2021/05/20 09:33:30;;;;;;;13.40;10.35;;;14.80;81.00;;;;;;5070469;28;20108;-55
2021/05/20 09:35:58;;;;;;;13.18;9.43;;;14.90;79.20;;;;;;5056298;28;20202;-53
2021/05/20 09:38:25;;;;;;;12.27;9.52;;;14.80;79.30;;;;;;5073946;28;20036;-54
2021/05/20 09:40:57;;;;;;;14.65;10.52;;;14.60;77.70;;;;;;5069102;28;20091;-52
2021/05/20 09:43:35;;;;;;;17.48;12.05;;;14.30;79.60;;;;;;5072187;28;20408;-54
2021/05/20 09:46:14;;;;;;;15.25;12.38;;;14.40;80.00;;;;;;5067615;28;20033;-55
2021/05/20 09:48:47;;;;;;;15.85;12.43;;;14.50;79.70;;;;;;5070200;28;20045;-55
2021/05/20 09:51:31;;;;;;;15.60;13.02;;;14.70;80.10;;;;;;5065287;28;20032;-56
2021/05/20 09:53:56;;;;;;;18.35;12.75;;;14.90;78.20;;;;;;5046680;28;20048;-56
2021/05/20 09:56:33;;;;;;;17.92;13.88;;;14.90;77.30;;;;;;5071423;28;20036;-54
2021/05/20 09:58:59;;;;;;;16.80;13.23;;;14.90;76.80;;;;;;5067079;28;20077;-56
2021/05/20 10:01:24;;;;;;;15.60;12.13;;;15.00;77.40;;;;;;5066473;28;20047;-54
2021/05/20 10:03:54;;;;;;;15.50;12.32;;;15.20;77.90;;;;;;5068566;28;20068;-55
2021/05/20 10:06:37;;;;;;;15.75;13.60;;;15.30;77.40;;;;;;5067861;28;20405;-56
2021/05/20 10:09:05;;;;;;;15.38;12.68;;;15.40;75.10;;;;;;5070628;28;20114;-55
2021/05/20 10:11:35;;;;;;;17.60;13.05;;;15.40;75.90;;;;;;5063834;28;20033;-53
2021/05/20 10:14:05;;;;;;;15.43;11.63;;;15.50;75.10;;;;;;5054709;28;20051;-55
2021/05/20 10:16:33;;;;;;;15.93;11.77;;;15.70;74.10;;;;;;5070901;28;20041;-53
2021/05/20 10:18:59;;;;;;;15.02;11.55;;;15.80;72.30;;;;;;5068463;28;20110;-56
2021/05/20 10:21:28;;;;;;;15.20;12.48;;;15.80;71.30;;;;;;5072001;28;20044;-55
2021/05/20 10:23:54;;;;;;;16.58;14.32;;;15.90;71.50;;;;;;5064148;28;20200;-53
2021/05/20 10:26:20;;;;;;;15.38;11.98;;;15.90;71.70;;;;;;5071670;28;20439;-52
2021/05/20 10:28:46;;;;;;;13.98;10.32;;;16.00;72.40;;;;;;5070371;28;20041;-56
2021/05/20 10:31:13;;;;;;;15.90;11.43;;;16.20;69.90;;;;;;5070425;28;20111;-55
2021/05/20 10:33:39;;;;;;;13.55;10.02;;;16.30;68.30;;;;;;5071136;28;20107;-54
2021/05/20 10:36:05;;;;;;;11.50;9.50;;;16.30;68.10;;;;;;5051114;28;20044;-55
2021/05/20 10:38:34;;;;;;;9.98;7.63;;;16.30;68.20;;;;;;5072394;28;20053;-56
2021/05/20 10:41:13;;;;;;;11.50;7.15;;;16.30;66.10;;;;;;5037899;28;20416;-56
2021/05/20 10:43:42;;;;;;;11.38;8.10;;;16.20;64.50;;;;;;5064601;28;20037;-56
2021/05/20 10:46:13;;;;;;;13.68;8.40;;;16.20;64.90;;;;;;5067569;28;20386;-56
2021/05/20 10:48:55;;;;;;;10.90;7.30;;;16.00;66.90;;;;;;5070135;28;20037;-56
2021/05/20 10:51:25;;;;;;;;;;;15.80;67.20;;;;;;5066367;28;20041;-56
2021/05/20 10:53:51;;;;;;;11.63;8.65;;;15.80;67.80;;;;;;5051289;28;19931;-56
2021/05/20 10:56:24;;;;;;;11.35;7.80;;;15.90;67.50;;;;;;5070133;28;20040;-56
2021/05/20 10:58:51;;;;;;;12.20;8.98;;;16.00;67.10;;;;;;5069472;28;20072;-57
2021/05/20 11:01:20;;;;;;;14.20;9.77;;;16.10;67.40;;;;;;5063496;28;20037;-58
2021/05/20 11:03:52;;;;;;;16.48;9.45;;;16.20;68.20;;;;;;5067685;28;20068;-57
2021/05/20 11:06:24;;;;;;;12.40;6.55;;;16.20;68.20;;;;;;5067269;28;20044;-57
2021/05/20 11:08:49;;;;;;;14.20;7.90;;;16.00;66.40;;;;;;5069797;28;20138;-56
2021/05/20 11:11:42;;;;;;;12.02;7.05;;;15.80;67.40;;;;;;5068812;28;20040;-57
2021/05/20 11:14:14;;;;;;;9.20;6.57;;;15.90;68.80;;;;;;5057692;28;20090;-58
2021/05/20 11:16:40;;;;;;;11.48;6.72;;;16.00;69.40;;;;;;5071662;28;20048;-58
2021/05/20 11:19:19;;;;;;;20.85;10.82;;;16.00;67.70;;;;;;5069604;28;20041;-57
2021/05/20 11:22:04;;;;;;;16.70;10.80;;;16.10;68.30;;;;;;5070036;28;20127;-57
2021/05/20 11:24:36;;;;;;;14.35;11.18;;;16.10;69.30;;;;;;5070905;28;20496;-58
2021/05/20 11:27:04;;;;;;;16.13;11.27;;;16.10;68.90;;;;;;5070945;28;20400;-57
2021/05/20 11:29:32;;;;;;;16.90;11.82;;;16.10;69.20;;;;;;5069501;28;20044;-57
2021/05/20 11:32:10;;;;;;;17.05;12.35;;;16.20;65.60;;;;;;5071352;28;20578;-57
2021/05/20 11:37:20;;;;;;;16.42;11.52;;;16.30;68.70;;;;;;5071514;28;20044;-57
2021/05/20 11:39:46;;;;;;;17.38;10.85;;;16.40;67.50;;;;;;5071159;28;20047;-56
2021/05/20 11:42:27;;;;;;;15.15;11.80;;;16.60;67.20;;;;;;5070133;28;20041;-57
2021/05/20 11:44:56;;;;;;;15.57;10.60;;;16.70;65.50;;;;;;5052719;28;20037;-56
2021/05/20 11:47:23;;;;;;;16.60;11.50;;;16.90;67.60;;;;;;5068861;28;20044;-57
2021/05/20 11:49:52;;;;;;;18.08;11.85;;;16.90;63.20;;;;;;5052453;28;20416;-58
2021/05/20 11:52:21;;;;;;;13.90;10.32;;;16.80;64.70;;;;;;5052565;28;20044;-57
2021/05/20 11:54:50;;;;;;;14.75;10.60;;;16.60;65.40;;;;;;5066167;28;20554;-57
2021/05/20 11:57:18;;;;;;;17.00;11.18;;;16.40;66.80;;;;;;5053993;28;20052;-57
2021/05/20 11:59:52;;;;;;;16.58;11.27;;;16.20;68.50;;;;;;5068539;28;20052;-57
2021/05/20 12:02:25;;;;;;;13.80;10.00;;;16.10;68.40;;;;;;5073335;28;20045;-57
2021/05/20 12:05:07;;;;;;;13.43;10.27;;;16.20;68.20;;;;;;5068183;28;20086;-56
2021/05/20 12:07:37;;;;;;;13.80;9.00;;;16.40;66.90;;;;;;5071536;28;20044;-56
2021/05/20 12:10:12;;;;;;;12.02;8.80;;;16.70;66.80;;;;;;5071504;28;20044;-57
2021/05/20 12:12:39;;;;;;;13.43;8.70;;;16.90;65.20;;;;;;5071098;28;20485;-57
2021/05/20 12:15:15;;;;;;;10.10;7.93;;;17.20;65.60;;;;;;5070478;28;20445;-57
2021/05/20 12:17:42;;;;;;;14.73;8.25;;;17.50;65.10;;;;;;5072224;28;20097;-56
2021/05/20 12:20:09;;;;;;;14.35;8.48;;;17.50;63.80;;;;;;5071762;28;20040;-58
2021/05/20 12:22:41;;;;;;;13.02;7.97;;;17.20;64.00;;;;;;5071944;28;20044;-57
2021/05/20 12:25:13;;;;;;;11.13;7.28;;;17.00;64.90;;;;;;5054462;28;20040;-56
2021/05/20 12:27:43;;;;;;;10.82;7.75;;;16.80;64.70;;;;;;5071712;28;20386;-57
2021/05/20 12:30:36;;;;;;;13.95;8.02;;;16.60;64.10;;;;;;5073888;28;20040;-55
2021/05/20 12:33:07;;;;;;;10.45;7.78;;;16.50;60.90;;;;;;5058057;28;20135;-56
2021/05/20 12:35:43;;;;;;;9.80;7.25;;;16.40;61.10;;;;;;5072115;28;20107;-56
2021/05/20 12:38:12;;;;;;;12.07;7.65;;;16.40;60.80;;;;;;5073305;28;20194;-57
2021/05/20 12:40:44;;;;;;;11.45;7.43;;;16.60;63.30;;;;;;5076638;28;20048;-56
2021/05/20 12:43:13;;;;;;;13.57;8.85;;;16.90;64.50;;;;;;5074923;28;20074;-56